Madison, AL (35756)

11:18 AM CDT on August 31, 2015 (GMT -0500)
The Willows | | Change Station
CLOSE
Current Station
Personal Weather Station
Location: Madison, AL
Elevation: 607 ft
Nearby Weather Stations

Elev 607 ft 34.61 °N, 86.75 °W | Updated 3 minutes ago

Overcast
Overcast
79.0 °F
Feels Like 82 °F
N
2.0
Wind Variable Wind from East
Gusts 6.0 mph

Today
High -- | Low -- °F
--% Chance of Precip.
Yesterday
High -- | Low -- °F
Precip. -- in
6:19 AM 7:15 PM
Waning Gibbous, 95% visible
Pressure 30.13 in
Visibility 10.0 miles
Clouds Mostly Cloudy 1900 ft
Mostly Cloudy 3100 ft
Mostly Cloudy 25000 ft
Heat Index 82 °F
Dew Point 72 °F
Humidity 78%
Rainfall 0.00 in
Snow Depth Not available.
UV 4 out of 12
Pollen 8.40 out of 12
Air Quality Not available.
Flu Activity Not available.
METAR KHSV 311553Z 11004KT 10SM BKN019 BKN031 BKN250 27/21 A3015 RMK AO2 SLP202 T02670206
Pressure 30.13 in
Visibility 10.0 miles
Clouds Mostly Cloudy 1900 ft
Mostly Cloudy 3100 ft
Mostly Cloudy 25000 ft
Heat Index 82 °F
Dew Point 72 °F
Humidity 78%
Rainfall 0.00 in
Snow Depth Not available.
UV 4 out of 12
Pollen 8.40 out of 12
Air Quality Not available.
Flu Activity Not available.
METAR KHSV 311553Z 11004KT 10SM BKN019 BKN031 BKN250 27/21 A3015 RMK AO2 SLP202 T02670206

10-Day Weather Forecast

×

Almanac

Astronomy

Aug. 31, 2015 Rise Set
Actual Time
Civil Twilight
Nautical Twilight
Astronomical Twilight
Moon
Length of Visible Light
Length of Day
Tomorrow will be .
, % of the Moon is Illuminated

Today's Extremes

State Highs State Lows

Community

WunderPhotos

Upload Photos

1,851,301 photos uploaded!

WunderBlogs® & News

Nearby

Air Quality

  Air Quality AQ Index Pollutant
Not available.

Snow Depth

Station Depth Elevation

Earthquake Activity

City Distance Mag. Time & Date
Minimum magnitude displayed is 2.5.

Coastal Water Temperatures

Place Temperature

Stations

Nearby Weather Stations

Station Location Temp. Windchill Dew Point Humidity Wind Precip. Elev Updated Type